Terminal Aerodrome Forecast
Issued by NWS Shreveport, LA

Home | Current Version | Previous Version | Text Only | Print | Product List | Glossary On
Versions: 1 2 3 4 5 6 7 8 9 10 11 12 13 14 15 16
000
FTUS44 KSHV 251120
TAFSHV
TAF
KSHV 251120Z 2512/2612 VRB03KT P6SM SCT005 SCT250
     FM251400 20004KT P6SM VCSH SCT010 BKN250
     FM251600 16003KT P6SM VCTS BKN045CB BKN100
      TEMPO 2519/2523 5SM -TSRA BKN040CB OVC070
     FM252300 05006KT P6SM OVC250
     FM260000 VRB04KT P6SM OVC150
     FM261000 07004KT P6SM FEW020 BKN150=

USA.gov is the U.S. government's official web portal to all federal, state and local government web resources and services.